Time;durP1;ratioP1;P1;durP2;ratioP2;P2;SDS_P1;SDS_P2;PMS_P1;PMS_P2;Temp;Humidity;BMP_temperature;BMP_pressure;BME280_temperature;BME280_humidity;BME280_pressure;Samples;Min_cycle;Max_cycle;Signal;HPM_P1;HPM_P2
2021/01/08 00:00:24;;;;;;;17.50;8.23;;;1.60;99.90;;;;;;5042655;28;20076;-51
2021/01/08 00:02:49;;;;;;;19.92;9.05;;;1.60;99.90;;;;;;5035295;28;20029;-48
2021/01/08 00:05:15;;;;;;;21.05;9.50;;;1.60;99.90;;;;;;5034358;28;20096;-46
2021/01/08 00:07:41;;;;;;;21.42;10.95;;;1.60;99.90;;;;;;5039090;28;20025;-47
2021/01/08 00:10:07;;;;;;;17.27;8.05;;;1.60;99.90;;;;;;5036064;28;20528;-46
2021/01/08 00:12:34;;;;;;;18.35;8.68;;;1.60;99.90;;;;;;5034706;28;20022;-48
2021/01/08 00:15:00;;;;;;;18.40;8.20;;;1.60;99.90;;;;;;5039434;28;20037;-47
2021/01/08 00:17:28;;;;;;;19.88;8.30;;;1.60;99.90;;;;;;5032444;28;20025;-49
2021/01/08 00:19:54;;;;;;;25.10;12.98;;;1.60;99.90;;;;;;5038688;28;20076;-45
2021/01/08 00:22:20;;;;;;;18.55;8.98;;;1.50;99.90;;;;;;5034040;28;20696;-46
2021/01/08 00:24:47;;;;;;;18.67;9.25;;;1.50;99.90;;;;;;5041221;28;20021;-42
2021/01/08 00:27:12;;;;;;;18.55;8.73;;;1.60;99.90;;;;;;5035147;28;20391;-48
2021/01/08 00:29:38;;;;;;;15.68;7.93;;;1.50;99.90;;;;;;5036041;28;20037;-47
2021/01/08 00:32:03;;;;;;;20.58;9.60;;;1.60;99.90;;;;;;5039744;28;20070;-44
2021/01/08 00:34:29;;;;;;;19.80;9.57;;;1.60;99.90;;;;;;5036762;28;20033;-46
2021/01/08 00:36:56;;;;;;;21.52;9.38;;;1.60;99.90;;;;;;5039020;28;20033;-46
2021/01/08 00:39:22;;;;;;;23.15;11.07;;;1.60;99.90;;;;;;5036105;28;20112;-49
2021/01/08 00:41:48;;;;;;;20.80;9.38;;;1.60;99.90;;;;;;5041544;28;20082;-44
2021/01/08 00:44:15;;;;;;;22.13;9.32;;;1.60;99.90;;;;;;5037537;28;20027;-44
2021/01/08 00:46:44;;;;;;;31.52;14.25;;;1.60;99.90;;;;;;5038731;28;20116;-44
2021/01/08 00:49:09;;;;;;;23.98;10.45;;;1.60;99.90;;;;;;5038537;28;20057;-43
2021/01/08 00:51:36;;;;;;;23.40;10.05;;;1.60;99.90;;;;;;5038118;28;20073;-44
2021/01/08 00:54:02;;;;;;;23.88;10.48;;;1.50;99.90;;;;;;5036502;28;20063;-46
2021/01/08 00:56:28;;;;;;;22.00;10.88;;;1.60;99.90;;;;;;5033674;28;20596;-46
2021/01/08 00:58:53;;;;;;;21.95;9.85;;;1.60;99.90;;;;;;5036825;28;20053;-48
2021/01/08 01:01:20;;;;;;;22.98;9.82;;;1.60;99.90;;;;;;5036512;28;20071;-47
2021/01/08 01:03:47;;;;;;;21.48;9.23;;;1.60;99.90;;;;;;5035046;28;20026;-48
2021/01/08 01:06:23;;;;;;;22.70;10.35;;;1.60;99.90;;;;;;5035624;28;20087;-49
2021/01/08 01:08:49;;;;;;;23.63;10.15;;;1.60;99.90;;;;;;5033719;28;20044;-45
2021/01/08 01:11:15;;;;;;;22.48;9.35;;;1.60;99.90;;;;;;5042470;28;20041;-45
2021/01/08 01:13:42;;;;;;;15.48;7.68;;;1.60;99.90;;;;;;5037636;28;20033;-46
2021/01/08 01:16:07;;;;;;;20.77;9.57;;;1.60;99.90;;;;;;5037626;28;20074;-46
2021/01/08 01:18:33;;;;;;;20.70;9.02;;;1.60;99.90;;;;;;5033953;28;20955;-46
2021/01/08 01:20:58;;;;;;;23.40;10.60;;;1.60;99.90;;;;;;5041702;28;20037;-47
2021/01/08 01:23:23;;;;;;;23.10;10.75;;;1.60;99.90;;;;;;5049818;28;20021;-45
2021/01/08 01:25:49;;;;;;;19.52;9.60;;;1.60;99.90;;;;;;5038722;28;20402;-47
2021/01/08 01:28:15;;;;;;;22.70;10.55;;;1.60;99.90;;;;;;5034595;28;20060;-46
2021/01/08 01:30:40;;;;;;;21.55;10.48;;;1.50;99.90;;;;;;5040946;28;20033;-46
2021/01/08 01:33:06;;;;;;;20.50;9.65;;;1.50;99.90;;;;;;5041587;28;20030;-48
2021/01/08 01:35:31;;;;;;;26.02;11.10;;;1.50;99.90;;;;;;5039314;28;20025;-50
2021/01/08 01:37:57;;;;;;;24.38;11.43;;;1.40;99.90;;;;;;5035677;28;20025;-48
2021/01/08 01:40:23;;;;;;;24.70;11.30;;;1.40;99.90;;;;;;5043890;28;20029;-45
2021/01/08 01:42:48;;;;;;;24.75;12.10;;;1.40;99.90;;;;;;5035990;28;20068;-47
2021/01/08 01:45:14;;;;;;;23.42;11.55;;;1.40;99.90;;;;;;5035233;28;20017;-47
2021/01/08 01:47:40;;;;;;;24.35;11.77;;;1.40;99.90;;;;;;5036698;28;20044;-48
2021/01/08 01:50:07;;;;;;;24.02;9.63;;;1.40;99.90;;;;;;5044244;28;20052;-47
2021/01/08 01:52:35;;;;;;;30.23;12.20;;;1.40;99.90;;;;;;5032628;28;20045;-45
2021/01/08 01:55:01;;;;;;;22.83;11.15;;;1.40;99.90;;;;;;5037751;28;20040;-48
2021/01/08 01:57:26;;;;;;;21.30;10.38;;;1.40;99.90;;;;;;5035987;28;20035;-52
2021/01/08 01:59:52;;;;;;;23.73;10.45;;;1.50;99.90;;;;;;5041337;28;20033;-48
2021/01/08 02:02:30;;;;;;;25.15;11.50;;;1.50;99.90;;;;;;5037085;28;20498;-46
2021/01/08 02:04:57;;;;;;;25.50;10.93;;;1.50;99.90;;;;;;5036718;28;20039;-46
2021/01/08 02:07:24;;;;;;;23.40;11.13;;;1.50;99.90;;;;;;5036290;28;20857;-46
2021/01/08 02:09:51;;;;;;;24.20;10.90;;;1.50;99.90;;;;;;5032985;28;20090;-48
2021/01/08 02:12:17;;;;;;;27.38;12.02;;;1.50;99.90;;;;;;5036368;28;20057;-47
2021/01/08 02:14:45;;;;;;;17.95;9.45;;;1.60;99.90;;;;;;5035452;28;20090;-48
2021/01/08 02:17:13;;;;;;;19.45;8.93;;;1.50;99.90;;;;;;5032610;28;20033;-50
2021/01/08 02:19:51;;;;;;;23.35;10.32;;;1.50;99.90;;;;;;5037327;28;20041;-46
2021/01/08 02:22:29;;;;;;;27.13;12.15;;;1.60;99.90;;;;;;5033589;28;20071;-47
2021/01/08 02:25:03;;;;;;;26.17;11.90;;;1.50;99.90;;;;;;5037834;28;20040;-48
2021/01/08 02:27:31;;;;;;;24.17;10.85;;;1.50;99.90;;;;;;5035727;28;20022;-47
2021/01/08 02:29:57;;;;;;;21.15;10.65;;;1.50;99.90;;;;;;5036825;28;20068;-44
2021/01/08 02:32:25;;;;;;;29.95;13.25;;;1.50;99.90;;;;;;5035173;28;20060;-49
2021/01/08 02:34:51;;;;;;;24.73;11.38;;;1.50;99.90;;;;;;5033844;28;20064;-49
2021/01/08 02:37:17;;;;;;;20.70;10.25;;;1.50;99.90;;;;;;5034847;28;20074;-51
2021/01/08 02:39:43;;;;;;;25.27;10.57;;;1.40;99.90;;;;;;5031933;28;20102;-46
2021/01/08 02:42:11;;;;;;;26.42;10.93;;;1.40;99.90;;;;;;5032222;28;20034;-44
2021/01/08 02:44:37;;;;;;;28.52;12.75;;;1.40;99.90;;;;;;5044528;28;20057;-43
2021/01/08 02:47:02;;;;;;;24.55;10.55;;;1.40;99.90;;;;;;5038385;28;20075;-45
2021/01/08 02:49:28;;;;;;;25.70;12.52;;;1.40;99.90;;;;;;5045049;28;20111;-44
2021/01/08 02:51:53;;;;;;;24.30;11.63;;;1.40;99.90;;;;;;5043388;28;20056;-46
2021/01/08 02:54:19;;;;;;;27.83;11.63;;;1.40;99.90;;;;;;5034953;28;20033;-45
2021/01/08 02:56:52;;;;;;;29.02;11.80;;;1.40;99.90;;;;;;5031313;28;20029;-47
2021/01/08 02:59:18;;;;;;;26.67;11.25;;;1.40;99.90;;;;;;5041970;28;20044;-46
2021/01/08 03:01:44;;;;;;;25.17;11.70;;;1.40;99.90;;;;;;5037819;28;20425;-47
2021/01/08 03:04:10;;;;;;;23.15;11.65;;;1.40;99.90;;;;;;5036907;28;20045;-47
2021/01/08 03:06:40;;;;;;;20.50;9.77;;;1.40;99.90;;;;;;5031936;28;20048;-45
2021/01/08 03:09:06;;;;;;;23.48;10.15;;;1.40;99.90;;;;;;5031798;28;20044;-50
2021/01/08 03:11:32;;;;;;;23.23;10.82;;;1.40;99.90;;;;;;5030656;28;20104;-46
2021/01/08 03:13:57;;;;;;;21.23;10.68;;;1.40;99.90;;;;;;5036121;28;20117;-46
2021/01/08 03:16:23;;;;;;;23.25;10.13;;;1.30;99.90;;;;;;5031780;28;20065;-48
2021/01/08 03:18:49;;;;;;;23.25;11.30;;;1.40;99.90;;;;;;5035219;28;20036;-48
2021/01/08 03:21:14;;;;;;;25.58;11.15;;;1.30;99.90;;;;;;5041452;28;20393;-47
2021/01/08 03:23:40;;;;;;;24.42;11.00;;;1.40;99.90;;;;;;5043062;28;20100;-46
2021/01/08 03:26:05;;;;;;;20.42;9.95;;;1.30;99.90;;;;;;5035467;28;20029;-47
2021/01/08 03:28:31;;;;;;;20.58;10.00;;;1.30;99.90;;;;;;5035228;28;20069;-47
2021/01/08 03:30:56;;;;;;;26.52;11.65;;;1.30;99.90;;;;;;5039461;28;20088;-47
2021/01/08 03:33:22;;;;;;;20.13;9.65;;;1.30;99.90;;;;;;5042453;28;20047;-45
2021/01/08 03:35:47;;;;;;;23.65;11.13;;;1.40;99.90;;;;;;5035545;28;20041;-46
2021/01/08 03:38:13;;;;;;;25.58;11.00;;;1.30;99.90;;;;;;5036609;28;20045;-47
2021/01/08 03:40:40;;;;;;;21.83;10.98;;;1.30;99.90;;;;;;5031699;28;20048;-48
2021/01/08 03:43:07;;;;;;;26.30;11.18;;;1.30;99.90;;;;;;5040830;28;20021;-49
2021/01/08 03:45:33;;;;;;;29.02;12.20;;;1.30;99.90;;;;;;5040594;28;20021;-44
2021/01/08 03:47:58;;;;;;;24.27;10.43;;;1.30;99.90;;;;;;5031941;28;20026;-48
2021/01/08 03:50:24;;;;;;;26.92;12.60;;;1.30;99.90;;;;;;5039856;28;20029;-47
2021/01/08 03:52:49;;;;;;;25.65;11.50;;;1.30;99.90;;;;;;5032896;28;20418;-52
2021/01/08 03:55:15;;;;;;;24.65;10.82;;;1.30;99.90;;;;;;5031177;28;20021;-46
2021/01/08 03:57:41;;;;;;;22.25;11.63;;;1.30;99.90;;;;;;5035484;28;20482;-44
2021/01/08 04:00:07;;;;;;;23.02;11.23;;;1.30;99.90;;;;;;5037150;28;20033;-43
2021/01/08 04:02:32;;;;;;;24.65;11.10;;;1.30;99.90;;;;;;5035446;28;20497;-46
2021/01/08 04:04:58;;;;;;;27.17;12.13;;;1.30;99.90;;;;;;5036756;28;20025;-48
2021/01/08 04:07:24;;;;;;;23.35;11.63;;;1.30;99.90;;;;;;5036081;28;20056;-45
2021/01/08 04:09:50;;;;;;;31.52;14.48;;;1.30;99.90;;;;;;5041892;28;20041;-46
2021/01/08 04:12:15;;;;;;;23.20;10.82;;;1.30;99.90;;;;;;5040710;28;20037;-50
2021/01/08 04:14:41;;;;;;;23.63;9.52;;;1.30;99.90;;;;;;5034981;28;20055;-50
2021/01/08 04:17:07;;;;;;;28.95;11.60;;;1.30;99.90;;;;;;5041664;28;20061;-49
2021/01/08 04:19:32;;;;;;;23.02;9.30;;;1.30;99.90;;;;;;5041638;28;20458;-47
2021/01/08 04:21:57;;;;;;;25.67;10.70;;;1.20;99.90;;;;;;5043344;28;20475;-44
2021/01/08 04:24:23;;;;;;;24.45;10.13;;;1.20;99.90;;;;;;5040826;28;20029;-47
2021/01/08 04:26:48;;;;;;;23.20;9.80;;;1.30;99.90;;;;;;5034114;28;20037;-49
2021/01/08 04:29:14;;;;;;;27.08;10.48;;;1.20;99.90;;;;;;5034542;28;20030;-48
2021/01/08 04:31:41;;;;;;;25.73;11.25;;;1.20;99.90;;;;;;5043493;28;20041;-49
2021/01/08 04:34:07;;;;;;;26.48;10.05;;;1.20;99.90;;;;;;5041805;28;20025;-46
2021/01/08 04:36:33;;;;;;;23.35;9.50;;;1.20;99.90;;;;;;5040177;28;20102;-48
2021/01/08 04:38:59;;;;;;;19.88;9.32;;;1.20;99.90;;;;;;5034205;28;20239;-45
2021/01/08 04:41:25;;;;;;;24.65;10.63;;;1.20;99.90;;;;;;5034174;28;20104;-47
2021/01/08 04:43:50;;;;;;;20.88;9.40;;;1.20;99.90;;;;;;5046816;28;20029;-45
2021/01/08 04:46:23;;;;;;;22.42;10.35;;;1.20;99.90;;;;;;5034532;28;20032;-47
2021/01/08 04:48:52;;;;;;;28.45;11.32;;;1.20;99.90;;;;;;5034702;28;20136;-46
2021/01/08 04:51:18;;;;;;;24.83;10.20;;;1.20;99.90;;;;;;5043350;28;20201;-47
2021/01/08 04:53:44;;;;;;;26.38;11.23;;;1.20;99.90;;;;;;5041544;28;20034;-48
2021/01/08 04:56:12;;;;;;;20.15;9.52;;;1.10;99.90;;;;;;5037614;28;20059;-51
2021/01/08 04:58:38;;;;;;;24.85;12.95;;;1.10;99.90;;;;;;5034022;28;20029;-44
2021/01/08 05:01:03;;;;;;;26.42;10.45;;;1.10;99.90;;;;;;5037681;28;20033;-47
2021/01/08 05:03:30;;;;;;;25.67;12.25;;;1.20;99.90;;;;;;5040272;28;20018;-44
2021/01/08 05:05:56;;;;;;;28.55;11.30;;;1.20;99.90;;;;;;5037869;28;20481;-46
2021/01/08 05:08:22;;;;;;;24.40;11.10;;;1.10;99.90;;;;;;5033819;28;20558;-44
2021/01/08 05:10:48;;;;;;;25.27;11.98;;;1.10;99.90;;;;;;5034395;28;20096;-43
2021/01/08 05:13:14;;;;;;;28.35;12.57;;;1.10;99.90;;;;;;5038869;28;20056;-44
2021/01/08 05:15:40;;;;;;;27.25;12.57;;;1.10;99.90;;;;;;5033586;28;20065;-48
2021/01/08 05:18:06;;;;;;;27.38;11.27;;;1.20;99.90;;;;;;5040324;28;20034;-42
2021/01/08 05:20:32;;;;;;;26.95;12.23;;;1.10;99.90;;;;;;5038386;28;20505;-47
2021/01/08 05:22:59;;;;;;;25.60;12.07;;;1.10;99.90;;;;;;5036628;28;20106;-45
2021/01/08 05:25:25;;;;;;;28.33;12.27;;;1.10;99.90;;;;;;5040749;28;20017;-46
2021/01/08 05:27:51;;;;;;;28.10;12.48;;;1.20;99.90;;;;;;5037611;28;20368;-45
2021/01/08 05:30:21;;;;;;;25.40;10.60;;;1.20;99.90;;;;;;5037002;28;20025;-43
2021/01/08 05:32:56;;;;;;;23.52;10.50;;;1.20;99.90;;;;;;5036690;28;20134;-43
2021/01/08 05:35:22;;;;;;;23.17;11.23;;;1.10;99.90;;;;;;5033655;28;20026;-47
2021/01/08 05:37:48;;;;;;;28.20;12.35;;;1.10;99.90;;;;;;5041369;28;20162;-49
2021/01/08 05:40:14;;;;;;;21.55;10.43;;;1.10;99.90;;;;;;5042044;28;20121;-45
2021/01/08 05:42:51;;;;;;;22.58;10.10;;;1.10;99.90;;;;;;5039715;28;20033;-45
2021/01/08 05:45:18;;;;;;;25.33;11.40;;;1.10;99.90;;;;;;5033414;28;20059;-44
2021/01/08 05:47:44;;;;;;;20.35;9.13;;;1.10;99.90;;;;;;5037460;28;20048;-49
2021/01/08 05:50:11;;;;;;;28.23;12.75;;;1.00;99.90;;;;;;5043458;28;20549;-48
2021/01/08 05:52:40;;;;;;;23.50;10.25;;;1.00;99.90;;;;;;5035347;28;20069;-44
2021/01/08 05:55:11;;;;;;;22.70;10.45;;;1.00;99.90;;;;;;5039293;28;20037;-46
2021/01/08 05:57:36;;;;;;;25.20;10.45;;;1.00;99.90;;;;;;5042441;28;20393;-44
2021/01/08 06:00:04;;;;;;;22.55;9.75;;;1.00;99.90;;;;;;5046570;28;20041;-46
2021/01/08 06:02:31;;;;;;;21.42;10.02;;;1.00;99.90;;;;;;5046649;28;20029;-47
2021/01/08 06:04:58;;;;;;;18.08;9.15;;;0.90;99.90;;;;;;5038223;28;20033;-44
2021/01/08 06:07:27;;;;;;;23.40;11.10;;;0.90;99.90;;;;;;5040508;28;20044;-47
2021/01/08 06:09:53;;;;;;;23.02;10.02;;;0.90;99.90;;;;;;5039598;28;20402;-50
2021/01/08 06:12:20;;;;;;;23.88;10.73;;;0.90;99.90;;;;;;5034096;28;20029;-45
2021/01/08 06:14:47;;;;;;;25.52;11.15;;;0.90;99.90;;;;;;5034834;28;20041;-47
2021/01/08 06:17:18;;;;;;;21.08;9.35;;;0.90;99.90;;;;;;5048636;28;20052;-47
2021/01/08 06:19:45;;;;;;;26.90;11.43;;;0.80;99.90;;;;;;5032695;28;20036;-49
2021/01/08 06:22:11;;;;;;;27.08;11.80;;;0.90;99.90;;;;;;5041303;28;20033;-45
2021/01/08 06:24:37;;;;;;;18.25;9.38;;;0.80;99.90;;;;;;5035941;28;20022;-45
2021/01/08 06:27:03;;;;;;;25.83;10.73;;;0.80;99.90;;;;;;5035654;28;20041;-42
2021/01/08 06:29:33;;;;;;;27.50;11.65;;;0.90;99.90;;;;;;5044004;28;20051;-45
2021/01/08 06:32:20;;;;;;;23.42;10.85;;;0.90;99.90;;;;;;5031952;28;20033;-44
2021/01/08 06:34:46;;;;;;;23.48;9.90;;;0.90;99.90;;;;;;5032477;28;20040;-46
2021/01/08 06:37:14;;;;;;;22.90;10.38;;;0.90;99.90;;;;;;5031838;28;20532;-44
2021/01/08 06:39:44;;;;;;;20.80;10.02;;;0.90;99.90;;;;;;5035932;28;20079;-47
2021/01/08 06:42:24;;;;;;;22.83;9.77;;;0.90;99.90;;;;;;5030798;28;20181;-46
2021/01/08 06:44:51;;;;;;;25.55;11.55;;;0.90;99.90;;;;;;5037608;28;20053;-45
2021/01/08 06:47:21;;;;;;;30.85;11.65;;;0.80;99.90;;;;;;5036849;28;20033;-47
2021/01/08 06:49:50;;;;;;;31.70;13.05;;;0.90;99.90;;;;;;5038993;28;20492;-48
2021/01/08 06:52:16;;;;;;;25.23;12.10;;;0.90;99.90;;;;;;5039317;28;20042;-46
2021/01/08 06:54:43;;;;;;;24.88;11.57;;;0.90;99.90;;;;;;5044105;28;20036;-45
2021/01/08 06:57:17;;;;;;;26.05;10.98;;;0.90;99.90;;;;;;5038201;28;20137;-47
2021/01/08 06:59:51;;;;;;;21.92;9.45;;;0.90;99.90;;;;;;5036880;28;20044;-43
2021/01/08 07:02:21;;;;;;;29.27;11.70;;;0.90;99.90;;;;;;5040028;28;20026;-45
2021/01/08 07:04:48;;;;;;;23.38;9.95;;;1.00;99.90;;;;;;5034687;28;20029;-46
2021/01/08 07:07:21;;;;;;;26.88;10.85;;;1.00;99.90;;;;;;5036271;28;20402;-48
2021/01/08 07:09:47;;;;;;;28.40;9.73;;;1.10;99.90;;;;;;5038775;28;20079;-46
2021/01/08 07:12:13;;;;;;;22.02;10.73;;;1.10;99.90;;;;;;5030300;28;20057;-46
2021/01/08 07:14:39;;;;;;;20.33;10.23;;;1.10;99.90;;;;;;5035227;28;20488;-43
2021/01/08 07:17:09;;;;;;;33.45;16.17;;;1.10;99.90;;;;;;5044936;28;20433;-47
2021/01/08 07:19:39;;;;;;;31.35;13.25;;;1.20;99.90;;;;;;5037466;28;20029;-43
2021/01/08 07:22:05;;;;;;;28.95;13.55;;;1.20;99.90;;;;;;5041514;28;20025;-44
2021/01/08 07:24:31;;;;;;;27.02;12.38;;;1.20;99.90;;;;;;5052179;28;20071;-44
2021/01/08 07:27:20;;;;;;;29.40;14.65;;;1.20;99.90;;;;;;5033882;28;20048;-43
2021/01/08 07:29:53;;;;;;;27.23;13.55;;;1.20;99.90;;;;;;5039455;28;20029;-43
2021/01/08 07:32:53;;;;;;;31.58;14.82;;;1.20;99.90;;;;;;5051894;28;20125;-45
2021/01/08 07:35:27;;;;;;;27.00;14.07;;;1.20;99.90;;;;;;5045406;28;20032;-45
2021/01/08 07:38:08;;;;;;;25.67;11.82;;;1.20;99.90;;;;;;5047175;28;20111;-46
2021/01/08 07:40:36;;;;;;;26.33;11.10;;;1.20;99.90;;;;;;5049845;28;20029;-43
2021/01/08 07:43:09;;;;;;;24.30;12.15;;;1.30;99.90;;;;;;5042594;28;20079;-47
2021/01/08 07:45:53;;;;;;;30.33;13.35;;;1.30;99.90;;;;;;5040509;28;20029;-44
2021/01/08 07:48:24;;;;;;;22.80;10.90;;;1.30;99.90;;;;;;5048612;28;20029;-46
2021/01/08 07:50:57;;;;;;;25.63;11.13;;;1.30;99.90;;;;;;5037860;28;20392;-45
2021/01/08 07:53:50;;;;;;;26.00;12.13;;;1.30;99.90;;;;;;5043924;28;20017;-44
2021/01/08 07:56:26;;;;;;;28.63;11.90;;;1.40;99.90;;;;;;5033773;28;20036;-45
2021/01/08 07:58:59;;;;;;;22.02;10.50;;;1.40;99.90;;;;;;5034594;28;20056;-46
2021/01/08 08:01:25;;;;;;;28.08;12.93;;;1.40;99.90;;;;;;5050873;28;20033;-45
2021/01/08 08:04:02;;;;;;;26.67;11.98;;;1.40;99.90;;;;;;5042411;28;20111;-47
2021/01/08 08:06:31;;;;;;;23.05;10.05;;;1.40;99.90;;;;;;5043268;28;20048;-45
2021/01/08 08:09:01;;;;;;;27.33;12.13;;;1.40;99.90;;;;;;5040327;28;20029;-43
2021/01/08 08:11:29;;;;;;;27.98;12.07;;;1.40;99.90;;;;;;5035614;28;20037;-45
2021/01/08 08:13:55;;;;;;;22.73;10.57;;;1.40;99.90;;;;;;5040258;28;20375;-45
2021/01/08 08:16:34;;;;;;;23.15;12.18;;;1.50;99.90;;;;;;5040422;28;20060;-45
2021/01/08 08:19:00;;;;;;;27.58;14.43;;;1.50;99.90;;;;;;5034760;28;20831;-46
2021/01/08 08:21:26;;;;;;;29.30;13.18;;;1.50;99.90;;;;;;5042786;28;20037;-46
2021/01/08 08:23:53;;;;;;;29.27;14.05;;;1.50;99.90;;;;;;5038308;28;20017;-47
2021/01/08 08:26:19;;;;;;;26.77;13.20;;;1.60;99.90;;;;;;5038505;28;20035;-44
2021/01/08 08:29:03;;;;;;;26.60;12.05;;;1.60;99.90;;;;;;5036312;28;20028;-43
2021/01/08 08:31:31;;;;;;;24.75;11.55;;;1.60;99.90;;;;;;5037712;28;20853;-48
2021/01/08 08:33:57;;;;;;;27.65;12.63;;;1.60;99.90;;;;;;5042384;28;20450;-48
2021/01/08 08:36:25;;;;;;;26.92;12.27;;;1.60;99.90;;;;;;5035418;28;20026;-48
2021/01/08 08:38:59;;;;;;;24.25;12.07;;;1.60;99.90;;;;;;5043680;28;20570;-48
2021/01/08 08:41:25;;;;;;;24.77;10.73;;;1.70;99.90;;;;;;5047152;28;20830;-47
2021/01/08 08:44:05;;;;;;;25.58;12.30;;;1.70;99.90;;;;;;5047676;28;20394;-47
2021/01/08 08:46:42;;;;;;;19.58;10.65;;;1.70;99.90;;;;;;5043451;28;20017;-46
2021/01/08 08:49:11;;;;;;;30.02;14.02;;;1.70;99.90;;;;;;5046182;28;20052;-45
2021/01/08 08:51:43;;;;;;;24.58;12.55;;;1.70;99.90;;;;;;5045665;28;20091;-45
2021/01/08 08:54:09;;;;;;;24.35;11.43;;;1.80;99.90;;;;;;5051857;28;20044;-46
2021/01/08 08:56:39;;;;;;;21.33;9.50;;;1.80;99.90;;;;;;5038736;28;20044;-45
2021/01/08 08:59:04;;;;;;;25.45;11.10;;;1.80;99.90;;;;;;5044748;28;20026;-49
2021/01/08 09:01:43;;;;;;;25.00;11.10;;;1.90;99.90;;;;;;5038635;28;20104;-44
2021/01/08 09:04:09;;;;;;;21.67;11.02;;;1.90;99.90;;;;;;5047664;28;20100;-48
2021/01/08 09:06:42;;;;;;;21.67;10.95;;;1.90;99.90;;;;;;5044863;28;20604;-46
2021/01/08 09:09:20;;;;;;;22.08;11.25;;;1.90;99.90;;;;;;5040975;28;20083;-45
2021/01/08 09:11:58;;;;;;;26.15;11.25;;;2.00;99.90;;;;;;5046403;28;20063;-47
2021/01/08 09:14:29;;;;;;;22.95;11.65;;;2.00;99.90;;;;;;5040473;28;20025;-42
2021/01/08 09:17:02;;;;;;;22.52;11.43;;;2.00;99.90;;;;;;5043312;28;20035;-46
2021/01/08 09:19:58;;;;;;;22.58;10.85;;;2.10;99.90;;;;;;5037891;28;20083;-46
2021/01/08 09:22:26;;;;;;;19.77;9.43;;;2.20;99.90;;;;;;5035227;28;20036;-47
2021/01/08 09:24:58;;;;;;;26.92;10.35;;;2.20;99.90;;;;;;5039743;28;20041;-49
2021/01/08 09:27:24;;;;;;;21.55;10.50;;;2.20;99.90;;;;;;5031451;28;20026;-45
2021/01/08 09:29:50;;;;;;;25.25;13.02;;;2.20;99.90;;;;;;5039537;28;21783;-46
2021/01/08 09:32:30;;;;;;;21.85;11.02;;;2.30;99.90;;;;;;5041880;28;20409;-46
2021/01/08 09:34:59;;;;;;;25.25;12.25;;;2.30;99.90;;;;;;5034124;28;20033;-47
2021/01/08 09:37:32;;;;;;;26.90;11.23;;;2.30;99.90;;;;;;5040534;28;20427;-46
2021/01/08 09:39:59;;;;;;;24.45;10.75;;;2.40;99.90;;;;;;5041360;28;20060;-46
2021/01/08 09:42:25;;;;;;;22.08;10.18;;;2.40;99.90;;;;;;5045776;28;20024;-42
2021/01/08 09:44:50;;;;;;;23.05;11.70;;;2.40;99.90;;;;;;5039387;28;20487;-42
2021/01/08 09:47:16;;;;;;;24.27;11.63;;;2.40;99.90;;;;;;5040654;28;20040;-44
2021/01/08 09:49:48;;;;;;;22.95;11.90;;;2.50;99.90;;;;;;5038179;28;20048;-45
2021/01/08 09:52:14;;;;;;;24.80;11.15;;;2.50;99.90;;;;;;5041793;28;20048;-46
2021/01/08 09:54:45;;;;;;;21.15;10.77;;;2.50;99.90;;;;;;5037282;28;20049;-44
2021/01/08 09:57:23;;;;;;;21.95;10.73;;;2.60;99.90;;;;;;5032608;28;20029;-49
2021/01/08 09:59:59;;;;;;;33.17;14.20;;;2.60;99.90;;;;;;5037789;28;20469;-44
2021/01/08 10:02:40;;;;;;;36.38;15.57;;;2.60;99.90;;;;;;5031268;28;20501;-44
2021/01/08 10:05:06;;;;;;;38.17;14.77;;;2.60;99.90;;;;;;5035639;28;20021;-48
2021/01/08 10:07:42;;;;;;;27.23;13.00;;;2.70;99.90;;;;;;5049126;28;20095;-45
2021/01/08 10:10:12;;;;;;;27.95;13.00;;;2.70;99.90;;;;;;5045853;28;20060;-45
2021/01/08 10:12:48;;;;;;;25.83;11.98;;;2.70;99.90;;;;;;5037835;28;20094;-45
2021/01/08 10:15:18;;;;;;;21.30;11.02;;;2.70;99.90;;;;;;5038125;28;20048;-44
2021/01/08 10:17:48;;;;;;;22.67;11.45;;;2.70;99.90;;;;;;5039552;28;20049;-47
2021/01/08 10:20:19;;;;;;;25.40;12.75;;;2.80;99.90;;;;;;5053003;28;20032;-43
2021/01/08 10:22:54;;;;;;;27.83;12.43;;;2.70;99.90;;;;;;5038649;28;20033;-45
2021/01/08 10:25:28;;;;;;;24.05;13.10;;;2.70;99.90;;;;;;5033296;28;20597;-44
2021/01/08 10:28:14;;;;;;;26.52;13.43;;;2.70;99.90;;;;;;5044353;28;20501;-50
2021/01/08 10:30:40;;;;;;;23.85;12.23;;;2.80;99.90;;;;;;5044677;28;20045;-45
2021/01/08 10:33:08;;;;;;;23.75;12.38;;;2.80;99.90;;;;;;5045746;28;20021;-45
2021/01/08 10:35:35;;;;;;;22.88;11.63;;;2.80;99.90;;;;;;5046301;28;20554;-45
2021/01/08 10:38:00;;;;;;;22.92;11.32;;;2.90;99.90;;;;;;5035229;28;20025;-42
2021/01/08 10:40:26;;;;;;;23.02;11.40;;;2.90;99.90;;;;;;5043563;28;20028;-44
2021/01/08 10:42:52;;;;;;;22.73;11.30;;;3.00;99.90;;;;;;5034067;28;20551;-43
2021/01/08 10:45:18;;;;;;;22.33;10.32;;;3.00;99.90;;;;;;5047806;28;20144;-48
2021/01/08 10:47:44;;;;;;;22.00;10.98;;;3.00;99.90;;;;;;5031548;28;20096;-43
2021/01/08 10:50:11;;;;;;;24.33;11.65;;;3.00;99.90;;;;;;5040203;28;20094;-45
2021/01/08 10:52:36;;;;;;;23.00;10.73;;;3.00;99.90;;;;;;5036112;28;20458;-45
2021/01/08 10:55:03;;;;;;;22.27;11.27;;;3.00;99.90;;;;;;5038214;28;20060;-47
2021/01/08 10:57:29;;;;;;;22.13;12.05;;;3.00;99.90;;;;;;5030071;28;20086;-45
2021/01/08 10:59:54;;;;;;;27.10;12.65;;;3.10;99.90;;;;;;5040244;28;20458;-43
2021/01/08 11:02:20;;;;;;;23.42;11.38;;;3.10;99.90;;;;;;5041406;28;20028;-43
2021/01/08 11:04:46;;;;;;;24.63;11.25;;;3.20;99.90;;;;;;5038354;28;20029;-48
2021/01/08 11:07:11;;;;;;;33.40;14.93;;;3.30;99.90;;;;;;5040634;28;20025;-45
2021/01/08 11:09:37;;;;;;;30.17;14.10;;;3.30;99.90;;;;;;5038235;28;20040;-47
2021/01/08 11:12:03;;;;;;;27.20;12.75;;;3.30;99.90;;;;;;5042862;28;20418;-49
2021/01/08 11:14:29;;;;;;;29.45;14.70;;;3.40;99.90;;;;;;5034474;28;20033;-44
2021/01/08 11:16:54;;;;;;;27.33;14.25;;;3.40;99.90;;;;;;5038966;28;20410;-44
2021/01/08 11:19:20;;;;;;;27.50;13.10;;;3.40;99.90;;;;;;5040111;28;20037;-46
2021/01/08 11:21:46;;;;;;;37.60;15.07;;;3.50;99.90;;;;;;5036836;28;20037;-42
2021/01/08 11:24:12;;;;;;;29.45;14.73;;;3.50;99.90;;;;;;5041569;28;20029;-46
2021/01/08 11:26:37;;;;;;;36.45;16.05;;;3.50;99.90;;;;;;5038304;28;20021;-45
2021/01/08 11:29:03;;;;;;;30.65;15.30;;;3.50;99.90;;;;;;5034568;28;20041;-45
2021/01/08 11:31:35;;;;;;;28.85;14.00;;;3.50;99.90;;;;;;5039319;28;20490;-45
2021/01/08 11:34:02;;;;;;;26.13;13.30;;;3.50;99.90;;;;;;5032591;28;20052;-42
2021/01/08 11:36:27;;;;;;;27.13;13.30;;;3.50;99.90;;;;;;5047959;28;20024;-43
2021/01/08 11:38:54;;;;;;;23.92;11.05;;;3.60;99.90;;;;;;5043956;28;20044;-44
2021/01/08 11:41:20;;;;;;;26.38;13.10;;;3.60;99.90;;;;;;5043860;28;20029;-45
2021/01/08 11:43:46;;;;;;;23.23;12.30;;;3.60;99.90;;;;;;5050128;28;20056;-45
2021/01/08 11:46:19;;;;;;;22.40;11.68;;;3.70;99.90;;;;;;5042981;28;20065;-44
2021/01/08 11:48:46;;;;;;;25.58;11.98;;;3.70;99.90;;;;;;5037918;28;20029;-45
2021/01/08 11:51:14;;;;;;;25.73;11.82;;;3.70;99.90;;;;;;5047335;28;20438;-44
2021/01/08 11:53:41;;;;;;;28.45;14.43;;;3.70;99.90;;;;;;5037248;28;20073;-46
2021/01/08 11:56:08;;;;;;;24.38;12.15;;;3.70;99.90;;;;;;5036802;28;20056;-43
2021/01/08 11:58:37;;;;;;;29.77;13.68;;;3.70;99.90;;;;;;5041084;28;20479;-42
2021/01/08 12:01:04;;;;;;;21.35;11.45;;;3.70;99.90;;;;;;5036133;28;20040;-44
2021/01/08 12:03:30;;;;;;;23.45;12.82;;;3.70;99.90;;;;;;5053738;28;20021;-49
2021/01/08 12:05:57;;;;;;;23.50;11.95;;;3.70;99.90;;;;;;5044834;28;20475;-45
2021/01/08 12:08:23;;;;;;;22.20;11.30;;;3.70;99.90;;;;;;5046218;28;20025;-47
2021/01/08 12:10:49;;;;;;;23.75;11.63;;;3.70;99.90;;;;;;5038089;28;20103;-43
2021/01/08 12:13:14;;;;;;;21.83;11.75;;;3.80;99.90;;;;;;5034221;28;20116;-43
2021/01/08 12:15:41;;;;;;;22.55;11.30;;;3.70;99.90;;;;;;5037575;28;20435;-43
2021/01/08 12:18:07;;;;;;;22.55;11.52;;;3.80;99.90;;;;;;5039309;28;20025;-46
2021/01/08 12:20:32;;;;;;;22.83;12.20;;;3.80;99.90;;;;;;5044166;28;20371;-45
2021/01/08 12:22:58;;;;;;;20.58;10.90;;;3.80;99.90;;;;;;5047896;28;20071;-47
2021/01/08 12:25:23;;;;;;;25.48;15.20;;;3.80;99.90;;;;;;5035135;28;20045;-43
2021/01/08 12:27:49;;;;;;;21.77;11.32;;;3.70;99.90;;;;;;5045117;28;20021;-45
2021/01/08 12:30:15;;;;;;;20.83;10.32;;;3.80;99.90;;;;;;5038682;28;20032;-43
2021/01/08 12:32:40;;;;;;;20.70;11.02;;;3.70;99.90;;;;;;5044523;28;20037;-43
2021/01/08 12:35:07;;;;;;;23.13;11.32;;;3.70;99.90;;;;;;5049136;28;20778;-46
2021/01/08 12:37:32;;;;;;;22.27;11.63;;;3.70;99.90;;;;;;5041140;28;20516;-43
2021/01/08 12:39:58;;;;;;;26.60;13.20;;;3.70;99.90;;;;;;5042117;28;20104;-43
2021/01/08 12:42:23;;;;;;;24.88;11.65;;;3.60;99.90;;;;;;5039230;28;20029;-45